Weather at Tunis Carthage International Airport

Public forecast

Using degrees Celsius for public forecast. Weather courtesy of forecast.io.

Current aviation weather report (METAR) for Tunis Carthage International Airport

Retrieved 2021/08/04 06:30 UTC (30 minutes ago):

DTTA 040630Z 32007KT 9999 FEW030 32/16 Q1012

Aviation forecast (TAF) for Tunis Carthage International Airport

Retrieved 2021/08/04 06:45 UTC (15 minutes ago):

TAF DTTA 040500Z 0406/0506 33004KT 9999 FEW030 BECMG 0412/0414 03013KT BECMG 0418/0420 VRB03KT BECMG 0500/0502 31011KT